createdAt,value
2018-12-21T00:00:41.274Z,100735.37
2018-12-21T00:03:15.184Z,100737.22
2018-12-21T00:05:51.125Z,100732.35
2018-12-21T00:11:21.969Z,100716.38
2018-12-21T00:13:59.926Z,100706.14
2018-12-21T00:16:39.153Z,100703.28
2018-12-21T00:19:11.540Z,100699.88
2018-12-21T00:21:49.446Z,100695.66
2018-12-21T00:24:27.516Z,100696.48
2018-12-21T00:27:06.510Z,100687.36
2018-12-21T00:29:44.461Z,100682.62
2018-12-21T00:32:29.851Z,100688.42
2018-12-21T00:35:14.901Z,100684.41
2018-12-21T00:37:53.513Z,100689.86
2018-12-21T00:40:30.577Z,100679.41
2018-12-21T00:43:15.369Z,100671.98
2018-12-21T00:45:51.780Z,100671.13
2018-12-21T00:48:24.384Z,100665.58
2018-12-21T00:50:58.203Z,100670.11
2018-12-21T00:53:30.582Z,100667.86
2018-12-21T00:56:01.617Z,100664.78
2018-12-21T00:58:32.762Z,100661.65
2018-12-21T01:01:11.751Z,100667.95
2018-12-21T01:03:45.864Z,100656.41
2018-12-21T01:06:19.769Z,100660.17
2018-12-21T01:08:51.878Z,100654.13
2018-12-21T01:11:43.750Z,100656.59
2018-12-21T01:14:25.200Z,100647.11
2018-12-21T01:17:03.670Z,100649.89
2018-12-21T01:19:45.404Z,100645.23
2018-12-21T01:22:19.599Z,100631.95
2018-12-21T01:24:57.690Z,100636.25
2018-12-21T01:27:29.136Z,100625.47
2018-12-21T01:30:01.106Z,100624.56
2018-12-21T01:38:18.936Z,100616.69
2018-12-21T01:40:49.962Z,100618.93
2018-12-21T01:43:20.778Z,100613.52
2018-12-21T01:45:51.911Z,100608.81
2018-12-21T01:48:23.153Z,100592.87
2018-12-21T01:50:57.073Z,100588.25
2018-12-21T01:53:29.436Z,100584.50
2018-12-21T01:56:07.170Z,100590.75
2018-12-21T01:58:38.280Z,100582.92
2018-12-21T02:01:12.130Z,100578.72
2018-12-21T02:03:51.108Z,100576.17
2018-12-21T02:06:30.220Z,100565.98
2018-12-21T02:09:03.038Z,100561.50
2018-12-21T02:11:37.130Z,100560.61
2018-12-21T02:14:11.141Z,100554.20
2018-12-21T02:16:49.419Z,100549.77
2018-12-21T02:19:20.509Z,100541.72
2018-12-21T02:22:00.224Z,100535.42
2018-12-21T02:27:24.701Z,100523.28
2018-12-21T02:30:04.405Z,100522.39
2018-12-21T02:32:44.628Z,100517.19
2018-12-21T02:35:26.132Z,100515.20
2018-12-21T02:37:59.068Z,100508.19
2018-12-21T02:40:38.847Z,100507.80
2018-12-21T02:43:11.173Z,100505.42
2018-12-21T02:48:36.179Z,100500.39
2018-12-21T02:51:07.253Z,100495.57
2018-12-21T02:53:38.326Z,100489.70
2018-12-21T02:56:17.262Z,100482.06
2018-12-21T02:58:56.312Z,100472.35
2018-12-21T03:01:27.525Z,100469.25
2018-12-21T03:04:07.292Z,100461.39
2018-12-21T03:06:45.315Z,100453.14
2018-12-21T03:09:19.219Z,100456.70
2018-12-21T03:11:50.237Z,100450.30
2018-12-21T03:14:24.130Z,100454.91
2018-12-21T03:16:56.363Z,100450.16
2018-12-21T03:19:35.954Z,100441.73
2018-12-21T03:22:14.538Z,100443.91
2018-12-21T03:24:50.852Z,100439.11
2018-12-21T03:27:22.035Z,100436.28
2018-12-21T03:29:57.822Z,100430.61
2018-12-21T03:35:29.499Z,100437.61
2018-12-21T03:38:01.068Z,100426.53
2018-12-21T03:40:34.983Z,100427.55
2018-12-21T03:43:13.106Z,100413.02
2018-12-21T03:45:52.003Z,100406.46
2018-12-21T03:48:26.898Z,100399.14
2018-12-21T03:51:05.988Z,100390.52
2018-12-21T03:53:44.080Z,100379.25
2018-12-21T03:56:23.096Z,100362.05
2018-12-21T03:58:54.431Z,100352.05
2018-12-21T04:01:33.380Z,100346.11
2018-12-21T04:04:07.722Z,100338.26
2018-12-21T04:06:46.754Z,100330.77
2018-12-21T04:09:19.302Z,100318.63
2018-12-21T04:11:58.025Z,100304.58
2018-12-21T04:14:37.249Z,100299.52
2018-12-21T04:17:11.266Z,100284.92
2018-12-21T04:19:51.027Z,100285.27
2018-12-21T04:22:33.978Z,100277.98
2018-12-21T04:25:09.395Z,100270.02
2018-12-21T04:33:35.901Z,100248.56
2018-12-21T04:36:07.541Z,100245.58
2018-12-21T04:38:39.637Z,100246.19
2018-12-21T04:41:18.143Z,100250.94
2018-12-21T04:43:49.255Z,100242.09
2018-12-21T04:46:21.313Z,100237.99
2018-12-21T04:48:52.532Z,100248.19
2018-12-21T04:51:32.402Z,100240.21
2018-12-21T04:54:11.980Z,100242.05
2018-12-21T04:56:51.863Z,100235.72
2018-12-21T04:59:31.631Z,100231.22
2018-12-21T05:02:06.963Z,100230.75
2018-12-21T05:04:46.121Z,100220.28
2018-12-21T05:07:18.433Z,100215.55
2018-12-21T05:09:57.206Z,100207.03
2018-12-21T05:12:36.233Z,100204.05
2018-12-21T05:15:15.281Z,100188.06
2018-12-21T05:17:46.660Z,100176.23
2018-12-21T05:20:21.557Z,100165.02
2018-12-21T05:23:00.771Z,100169.84
2018-12-21T05:25:39.601Z,100171.80
2018-12-21T05:28:12.136Z,100176.34
2018-12-21T05:30:51.819Z,100150.78
2018-12-21T05:33:37.722Z,100151.31
2018-12-21T05:36:25.277Z,100143.44
2018-12-21T05:38:59.332Z,100136.52
2018-12-21T05:41:33.226Z,100126.25
2018-12-21T05:44:11.237Z,100109.14
2018-12-21T05:46:50.494Z,100098.05
2018-12-21T05:49:21.839Z,100100.19
2018-12-21T05:51:53.061Z,100083.91
2018-12-21T05:54:31.836Z,100084.95
2018-12-21T05:57:10.938Z,100072.08
2018-12-21T05:59:44.979Z,100054.14
2018-12-21T06:02:17.270Z,100045.49
2018-12-21T06:04:57.059Z,100033.58
2018-12-21T06:07:33.922Z,100021.22
2018-12-21T06:10:07.030Z,100008.49
2018-12-21T06:12:41.360Z,100001.27
2018-12-21T06:15:19.458Z,99995.42
2018-12-21T06:18:05.242Z,99982.89
2018-12-21T06:20:44.384Z,99981.39
2018-12-21T06:23:23.094Z,99958.94
2018-12-21T06:25:55.603Z,99949.91
2018-12-21T06:28:26.561Z,99938.79
2018-12-21T06:33:58.285Z,99925.72
2018-12-21T06:36:36.076Z,99926.02
2018-12-21T06:39:17.050Z,99916.44
2018-12-21T06:41:48.268Z,99912.35
2018-12-21T06:44:27.358Z,99906.66
2018-12-21T06:47:07.373Z,99903.38
2018-12-21T06:49:40.820Z,99905.02
2018-12-21T06:55:12.794Z,99884.92
2018-12-21T06:57:46.110Z,99890.34
2018-12-21T07:00:19.310Z,99882.38
2018-12-21T07:02:58.931Z,99861.70
2018-12-21T07:05:38.979Z,99855.58
2018-12-21T07:11:06.029Z,99852.66
2018-12-21T07:13:44.833Z,99856.17
2018-12-21T07:16:18.744Z,99844.11
2018-12-21T07:18:52.378Z,99838.64
2018-12-21T07:21:30.767Z,99840.52
2018-12-21T07:24:09.573Z,99829.27
2018-12-21T07:26:43.602Z,99825.24
2018-12-21T07:29:16.093Z,99810.80
2018-12-21T07:31:54.892Z,99811.43
2018-12-21T07:37:21.394Z,99813.01
2018-12-21T07:40:01.798Z,99795.95
2018-12-21T07:45:27.304Z,99773.09
2018-12-21T07:50:59.985Z,99761.84
2018-12-21T07:53:35.879Z,99761.09
2018-12-21T07:56:11.968Z,99755.73
2018-12-21T07:58:47.017Z,99745.13
2018-12-21T08:01:25.198Z,99740.81
2018-12-21T08:04:05.056Z,99742.45
2018-12-21T08:06:43.390Z,99741.47
2018-12-21T08:09:15.566Z,99731.90
2018-12-21T08:11:55.394Z,99719.59
2018-12-21T08:14:34.232Z,99712.01
2018-12-21T08:17:13.256Z,99702.16
2018-12-21T08:19:46.662Z,99693.97
2018-12-21T08:22:19.052Z,99693.19
2018-12-21T08:25:05.816Z,99678.98
2018-12-21T08:27:41.062Z,99676.75
2018-12-21T08:30:20.082Z,99662.05
2018-12-21T08:35:58.632Z,99657.58
2018-12-21T08:38:31.442Z,99642.10
2018-12-21T08:41:10.353Z,99634.65
2018-12-21T08:43:56.254Z,99633.36
2018-12-21T08:46:35.832Z,99622.78
2018-12-21T08:49:15.819Z,99601.56
2018-12-21T08:51:55.073Z,99617.56
2018-12-21T08:54:34.291Z,99605.69
2018-12-21T08:57:13.422Z,99595.95
2018-12-21T08:59:51.574Z,99593.42
2018-12-21T09:02:30.551Z,99578.87
2018-12-21T09:05:09.650Z,99584.23
2018-12-21T09:07:41.658Z,99577.81
2018-12-21T09:10:20.825Z,99568.83
2018-12-21T09:12:58.699Z,99566.10
2018-12-21T09:15:32.867Z,99568.33
2018-12-21T09:18:07.796Z,99562.80
2018-12-21T09:20:54.922Z,99556.25
2018-12-21T09:23:29.770Z,99550.84
2018-12-21T09:26:03.816Z,99561.70
2018-12-21T09:28:36.201Z,99556.34
2018-12-21T09:31:15.203Z,99559.41
2018-12-21T09:33:54.413Z,99560.92
2018-12-21T09:36:27.613Z,99548.09
2018-12-21T09:39:00.700Z,99531.70
2018-12-21T09:41:39.432Z,99523.94
2018-12-21T09:44:13.473Z,99540.38
2018-12-21T09:46:45.755Z,99548.94
2018-12-21T09:49:18.177Z,99534.60
2018-12-21T09:51:58.847Z,99529.23
2018-12-21T09:54:30.304Z,99528.22
2018-12-21T09:57:04.122Z,99542.78
2018-12-21T10:02:36.719Z,99536.02
2018-12-21T10:05:09.416Z,99519.87
2018-12-21T10:07:41.044Z,99510.48
2018-12-21T10:10:26.252Z,99509.39
2018-12-21T10:13:05.490Z,99511.39
2018-12-21T10:15:39.464Z,99501.83
2018-12-21T10:18:10.702Z,99506.43
2018-12-21T10:20:44.735Z,99502.44
2018-12-21T10:23:26.131Z,99492.06
2018-12-21T10:25:55.754Z,99496.17
2018-12-21T10:28:26.808Z,99497.08
2018-12-21T10:31:05.553Z,99483.39
2018-12-21T10:33:40.610Z,99482.41
2018-12-21T10:36:21.410Z,99484.94
2018-12-21T10:39:02.539Z,99473.75
2018-12-21T10:41:43.006Z,99474.61
2018-12-21T10:44:23.634Z,99463.73
2018-12-21T10:46:54.163Z,99472.63
2018-12-21T10:49:25.312Z,99466.86
2018-12-21T10:52:14.140Z,99480.19
2018-12-21T10:54:45.502Z,99466.06
2018-12-21T10:57:17.713Z,99471.52
2018-12-21T10:59:56.147Z,99467.25
2018-12-21T11:02:30.279Z,99470.52
2018-12-21T11:05:14.989Z,99468.59
2018-12-21T11:07:54.351Z,99470.05
2018-12-21T11:10:39.046Z,99472.77
2018-12-21T11:13:08.882Z,99465.41
2018-12-21T11:15:43.771Z,99461.48
2018-12-21T11:18:15.143Z,99467.89
2018-12-21T11:20:54.262Z,99467.95
2018-12-21T11:23:33.289Z,99470.98
2018-12-21T11:26:11.393Z,99463.19
2018-12-21T11:28:42.745Z,99457.62
2018-12-21T11:31:28.945Z,99459.26
2018-12-21T11:34:10.046Z,99457.38
2018-12-21T11:36:48.421Z,99449.02
2018-12-21T11:39:20.734Z,99457.72
2018-12-21T11:42:02.245Z,99445.88
2018-12-21T11:44:38.437Z,99447.50
2018-12-21T11:47:19.363Z,99442.39
2018-12-21T11:49:59.796Z,99454.53
2018-12-21T11:52:38.876Z,99460.21
2018-12-21T11:55:18.030Z,99447.02
2018-12-21T11:57:50.334Z,99443.78
2018-12-21T12:00:21.304Z,99434.34
2018-12-21T12:03:00.778Z,99435.41
2018-12-21T12:05:36.697Z,99436.25
2018-12-21T12:08:09.041Z,99447.58
2018-12-21T12:10:48.762Z,99451.69
2018-12-21T12:13:20.052Z,99440.88
2018-12-21T12:15:52.406Z,99444.69
2018-12-21T12:18:25.399Z,99451.17
2018-12-21T12:20:56.459Z,99450.34
2018-12-21T12:23:35.164Z,99452.54
2018-12-21T12:26:14.209Z,99457.92
2018-12-21T12:28:48.333Z,99471.70
2018-12-21T12:31:26.479Z,99464.41
2018-12-21T12:33:56.937Z,99475.99
2018-12-21T12:36:35.837Z,99464.41
2018-12-21T12:39:10.885Z,99487.08
2018-12-21T12:41:46.934Z,99473.86
2018-12-21T12:44:25.026Z,99492.25
2018-12-21T12:46:59.298Z,99476.56
2018-12-21T12:49:31.353Z,99493.33
2018-12-21T12:52:11.270Z,99489.55
2018-12-21T12:54:51.682Z,99491.42
2018-12-21T12:57:24.443Z,99489.80
2018-12-21T12:59:55.478Z,99496.30
2018-12-21T13:02:27.631Z,99497.66
2018-12-21T13:05:01.557Z,99500.36
2018-12-21T13:07:34.806Z,99503.58
2018-12-21T13:10:09.220Z,99513.58
2018-12-21T13:12:49.803Z,99511.41
2018-12-21T13:15:29.431Z,99519.27
2018-12-21T13:18:00.780Z,99533.30
2018-12-21T13:20:39.710Z,99531.67
2018-12-21T13:23:18.756Z,99529.52
2018-12-21T13:25:57.714Z,99529.80
2018-12-21T13:28:33.004Z,99530.33
2018-12-21T13:31:12.143Z,99536.00
2018-12-21T13:33:58.892Z,99543.84
2018-12-21T13:36:31.458Z,99541.14
2018-12-21T13:39:06.944Z,99546.30
2018-12-21T13:41:53.874Z,99559.25
2018-12-21T13:44:32.836Z,99563.31
2018-12-21T13:47:06.827Z,99570.06
2018-12-21T13:49:38.237Z,99566.81
2018-12-21T13:52:14.038Z,99572.22
2018-12-21T13:54:45.416Z,99573.05
2018-12-21T13:57:25.863Z,99583.30
2018-12-21T14:00:06.880Z,99587.08
2018-12-21T14:02:41.185Z,99587.07
2018-12-21T14:05:19.264Z,99588.70
2018-12-21T14:07:50.631Z,99598.16
2018-12-21T14:10:29.353Z,99602.48
2018-12-21T14:13:07.293Z,99620.61
2018-12-21T14:15:46.278Z,99618.70
2018-12-21T14:18:20.307Z,99636.55
2018-12-21T14:20:52.597Z,99627.09
2018-12-21T14:23:30.486Z,99638.16
2018-12-21T14:26:13.179Z,99643.81
2018-12-21T14:28:44.212Z,99650.31
2018-12-21T14:31:22.879Z,99660.86
2018-12-21T14:34:01.975Z,99654.89
2018-12-21T14:36:39.921Z,99647.86
2018-12-21T14:39:11.374Z,99660.03
2018-12-21T14:41:44.412Z,99673.02
2018-12-21T14:44:23.320Z,99674.36
2018-12-21T14:47:02.360Z,99682.98
2018-12-21T14:49:41.145Z,99687.33
2018-12-21T14:52:17.427Z,99690.02
2018-12-21T14:55:03.062Z,99695.94
2018-12-21T14:57:37.589Z,99699.73
2018-12-21T15:00:15.424Z,99701.86
2018-12-21T15:02:51.490Z,99701.59
2018-12-21T15:05:32.125Z,99715.38
2018-12-21T15:08:14.113Z,99708.36
2018-12-21T15:10:53.392Z,99716.97
2018-12-21T15:13:32.438Z,99724.53
2018-12-21T15:16:03.818Z,99725.09
2018-12-21T15:18:41.550Z,99720.68
2018-12-21T15:21:20.532Z,99731.44
2018-12-21T15:24:07.230Z,99731.73
2018-12-21T15:26:38.774Z,99738.78
2018-12-21T15:29:08.851Z,99753.59
2018-12-21T15:31:48.600Z,99751.95
2018-12-21T15:34:22.420Z,99757.33
2018-12-21T15:37:01.468Z,99762.70
2018-12-21T15:39:46.144Z,99761.66
2018-12-21T15:42:15.888Z,99771.39
2018-12-21T15:44:54.736Z,99771.11
2018-12-21T15:47:28.116Z,99772.97
2018-12-21T15:50:09.014Z,99778.64
2018-12-21T15:52:43.919Z,99771.86
2018-12-21T15:55:22.967Z,99787.80
2018-12-21T15:58:03.744Z,99781.31
2018-12-21T16:00:44.103Z,99788.34
2018-12-21T16:03:23.030Z,99799.67
2018-12-21T16:06:02.063Z,99794.29
2018-12-21T16:08:36.178Z,99801.82
2018-12-21T16:11:07.474Z,99805.89
2018-12-21T16:13:46.359Z,99823.40
2018-12-21T16:16:31.964Z,99829.10
2018-12-21T16:19:08.507Z,99830.64
2018-12-21T16:21:50.923Z,99826.08
2018-12-21T16:24:29.330Z,99830.53
2018-12-21T16:27:11.030Z,99835.03
2018-12-21T16:29:50.529Z,99832.24
2018-12-21T16:32:25.738Z,99826.97
2018-12-21T16:35:04.965Z,99839.47
2018-12-21T16:37:38.254Z,99843.66
2018-12-21T16:40:09.147Z,99857.42
2018-12-21T16:42:43.962Z,99868.69
2018-12-21T16:45:21.880Z,99867.15
2018-12-21T16:48:09.090Z,99873.92
2018-12-21T16:50:46.929Z,99881.38
2018-12-21T16:53:33.616Z,99893.13
2018-12-21T16:56:13.480Z,99896.12
2018-12-21T16:58:47.422Z,99901.53
2018-12-21T17:01:27.922Z,99906.86
2018-12-21T17:04:00.643Z,99923.92
2018-12-21T17:06:38.542Z,99908.41
2018-12-21T17:09:13.543Z,99933.08
2018-12-21T17:11:52.472Z,99935.72
2018-12-21T17:14:31.600Z,99925.63
2018-12-21T17:17:17.322Z,99931.22
2018-12-21T17:19:56.765Z,99917.25
2018-12-21T17:22:34.736Z,99948.37
2018-12-21T17:25:17.395Z,99945.80
2018-12-21T17:27:49.230Z,99945.36
2018-12-21T17:30:35.750Z,99944.19
2018-12-21T17:33:08.326Z,99946.59
2018-12-21T17:35:39.573Z,99951.12
2018-12-21T17:38:12.695Z,99960.59
2018-12-21T17:40:51.482Z,99962.36
2018-12-21T17:43:29.464Z,99969.20
2018-12-21T17:46:08.790Z,99973.37
2018-12-21T17:48:44.746Z,99980.79
2018-12-21T17:51:18.931Z,99983.48
2018-12-21T17:53:58.208Z,99987.66
2018-12-21T17:56:37.143Z,99993.70
2018-12-21T17:59:14.303Z,99988.63
2018-12-21T18:01:52.430Z,99991.09
2018-12-21T18:04:31.747Z,99997.06
2018-12-21T18:07:13.301Z,99999.66
2018-12-21T18:09:51.754Z,99999.73
2018-12-21T18:12:30.705Z,100011.93
2018-12-21T18:15:09.533Z,100007.79
2018-12-21T18:17:40.794Z,100018.92
2018-12-21T18:20:18.657Z,100008.94
2018-12-21T18:22:56.552Z,100022.45
2018-12-21T18:25:35.490Z,100022.72
2018-12-21T18:28:11.264Z,100027.79
2018-12-21T18:30:45.703Z,100029.78
2018-12-21T18:33:25.729Z,100047.89
2018-12-21T18:36:00.766Z,100046.83
2018-12-21T18:38:33.151Z,100050.81
2018-12-21T18:41:13.560Z,100043.81
2018-12-21T18:43:52.688Z,100048.89
2018-12-21T18:46:34.577Z,100060.51
2018-12-21T18:49:08.395Z,100062.66
2018-12-21T18:51:47.962Z,100076.69
2018-12-21T18:54:21.811Z,100073.96
2018-12-21T18:56:59.774Z,100072.39
2018-12-21T18:59:34.898Z,100078.52
2018-12-21T19:02:13.170Z,100078.45
2018-12-21T19:04:52.057Z,100075.67
2018-12-21T19:07:27.149Z,100088.36
2018-12-21T19:10:06.521Z,100091.27
2018-12-21T19:12:41.876Z,100103.59
2018-12-21T19:15:15.383Z,100098.02
2018-12-21T19:17:48.301Z,100094.67
2018-12-21T19:20:27.876Z,100096.81
2018-12-21T19:23:08.042Z,100103.56
2018-12-21T19:25:44.009Z,100099.91
2018-12-21T19:28:18.030Z,100103.66
2018-12-21T19:31:07.244Z,100108.34
2018-12-21T19:33:43.064Z,100106.88
2018-12-21T19:36:23.134Z,100102.72
2018-12-21T19:38:55.248Z,100108.03
2018-12-21T19:41:35.850Z,100133.01
2018-12-21T19:44:13.906Z,100117.70
2018-12-21T19:46:54.137Z,100119.30
2018-12-21T19:49:27.306Z,100130.09
2018-12-21T19:52:05.094Z,100131.91
2018-12-21T19:54:36.647Z,100132.06
2018-12-21T19:57:10.037Z,100139.92
2018-12-21T19:59:41.680Z,100136.77
2018-12-21T20:02:15.841Z,100136.69
2018-12-21T20:04:56.442Z,100139.17
2018-12-21T20:07:29.492Z,100156.37
2018-12-21T20:10:16.803Z,100161.98
2018-12-21T20:12:56.192Z,100156.37
2018-12-21T20:15:31.263Z,100163.15
2018-12-21T20:18:03.732Z,100161.11
2018-12-21T20:20:42.444Z,100172.55
2018-12-21T20:23:28.143Z,100165.22
2018-12-21T20:26:00.008Z,100172.35
2018-12-21T20:28:46.604Z,100172.17
2018-12-21T20:31:17.487Z,100175.38
2018-12-21T20:33:53.491Z,100170.28
2018-12-21T20:36:24.928Z,100179.72
2018-12-21T20:38:57.746Z,100189.73
2018-12-21T20:41:45.618Z,100189.87
2018-12-21T20:44:24.391Z,100188.53
2018-12-21T20:46:56.777Z,100197.58
2018-12-21T20:49:27.646Z,100199.31
2018-12-21T20:52:06.639Z,100195.45
2018-12-21T20:54:46.665Z,100209.38
2018-12-21T20:57:25.747Z,100196.62
2018-12-21T21:00:08.822Z,100210.35
2018-12-21T21:02:47.734Z,100213.92
2018-12-21T21:05:28.150Z,100205.89
2018-12-21T21:08:00.107Z,100211.99
2018-12-21T21:10:39.149Z,100208.41
2018-12-21T21:13:19.863Z,100212.83
2018-12-21T21:15:52.290Z,100220.92
2018-12-21T21:18:23.224Z,100223.62
2018-12-21T21:21:02.036Z,100219.87
2018-12-21T21:23:33.583Z,100218.81
2018-12-21T21:26:13.307Z,100224.93
2018-12-21T21:28:51.190Z,100217.63
2018-12-21T21:31:30.943Z,100227.95
2018-12-21T21:34:05.960Z,100230.41
2018-12-21T21:36:44.030Z,100227.82
2018-12-21T21:39:17.455Z,100234.48
2018-12-21T21:41:58.913Z,100235.28
2018-12-21T21:44:38.076Z,100239.63
2018-12-21T21:47:10.321Z,100237.55
2018-12-21T21:49:42.548Z,100245.77
2018-12-21T21:52:28.130Z,100259.05
2018-12-21T21:55:08.262Z,100252.62
2018-12-21T21:57:47.310Z,100256.05
2018-12-21T22:03:14.307Z,100271.45
2018-12-21T22:05:49.039Z,100274.27
2018-12-21T22:08:25.267Z,100281.30
2018-12-21T22:11:01.993Z,100284.19
2018-12-21T22:13:41.404Z,100280.20
2018-12-21T22:16:25.717Z,100287.89
2018-12-21T22:18:58.434Z,100282.32
2018-12-21T22:21:37.414Z,100283.03
2018-12-21T22:24:15.246Z,100282.23
2018-12-21T22:27:00.704Z,100283.60
2018-12-21T22:29:33.870Z,100286.30
2018-12-21T22:32:20.106Z,100289.86
2018-12-21T22:34:50.782Z,100293.77
2018-12-21T22:37:29.750Z,100291.66
2018-12-21T22:40:07.770Z,100292.52
2018-12-21T22:42:46.608Z,100282.40
2018-12-21T22:45:17.987Z,100298.67
2018-12-21T22:47:49.014Z,100306.91
2018-12-21T22:50:28.862Z,100300.95
2018-12-21T22:53:07.838Z,100307.48
2018-12-21T22:55:46.979Z,100307.49
2018-12-21T22:58:19.293Z,100315.03
2018-12-21T23:00:49.333Z,100319.88
2018-12-21T23:03:27.768Z,100307.75
2018-12-21T23:06:05.747Z,100317.48
2018-12-21T23:08:36.969Z,100316.14
2018-12-21T23:11:12.779Z,100313.69
2018-12-21T23:13:52.684Z,100315.23
2018-12-21T23:16:31.859Z,100326.47
2018-12-21T23:19:10.883Z,100331.54
2018-12-21T23:21:43.306Z,100328.66
2018-12-21T23:24:18.010Z,100331.91
2018-12-21T23:32:43.559Z,100334.39
2018-12-21T23:35:22.467Z,100339.23
2018-12-21T23:37:53.834Z,100337.19
2018-12-21T23:40:25.942Z,100331.59
2018-12-21T23:42:59.015Z,100338.44
2018-12-21T23:45:38.630Z,100329.30
2018-12-21T23:48:12.774Z,100332.20
2018-12-21T23:50:50.624Z,100331.34
2018-12-21T23:53:21.946Z,100328.95
2018-12-21T23:55:59.862Z,100329.39
2018-12-21T23:58:29.304Z,100325.45
